sensor_id;sensor_type;location;lat;lon;timestamp;pressure;altitude;pressure_sealevel;temperature;humidity
61571;BME280;47463;49.884;10.010;2023-01-27T00:00:01;102380;;;-2;94
61571;BME280;47463;49.884;10.010;2023-01-27T00:05:01;102380;;;-2;94
61571;BME280;47463;49.884;10.010;2023-01-27T00:10:01;102380;;;-2;94
61571;BME280;47463;49.884;10.010;2023-01-27T00:15:01;102370;;;-2;93
61571;BME280;47463;49.884;10.010;2023-01-27T00:20:01;102370;;;-2;93
61571;BME280;47463;49.884;10.010;2023-01-27T00:25:01;102380;;;-2;93
61571;BME280;47463;49.884;10.010;2023-01-27T00:30:01;102380;;;-2;93
61571;BME280;47463;49.884;10.010;2023-01-27T00:35:01;102380;;;-2;92
61571;BME280;47463;49.884;10.010;2023-01-27T00:40:01;102370;;;-2;92
61571;BME280;47463;49.884;10.010;2023-01-27T00:45:01;102370;;;-2;92
61571;BME280;47463;49.884;10.010;2023-01-27T00:50:01;102370;;;-2;92
61571;BME280;47463;49.884;10.010;2023-01-27T00:55:01;102370;;;-2;92
61571;BME280;47463;49.884;10.010;2023-01-27T01:00:01;102370;;;-2;92
61571;BME280;47463;49.884;10.010;2023-01-27T01:05:01;102380;;;-2;92
61571;BME280;47463;49.884;10.010;2023-01-27T01:10:01;102370;;;-2;92
61571;BME280;47463;49.884;10.010;2023-01-27T01:15:01;102380;;;-2;92
61571;BME280;47463;49.884;10.010;2023-01-27T01:20:01;102380;;;-2;92
61571;BME280;47463;49.884;10.010;2023-01-27T01:25:01;102390;;;-2;92
61571;BME280;47463;49.884;10.010;2023-01-27T01:30:01;102380;;;-2;92
61571;BME280;47463;49.884;10.010;2023-01-27T01:35:01;102390;;;-2;92
61571;BME280;47463;49.884;10.010;2023-01-27T01:40:01;102390;;;-2;92
61571;BME280;47463;49.884;10.010;2023-01-27T01:46:01;102390;;;-2;92
61571;BME280;47463;49.884;10.010;2023-01-27T01:50:01;102400;;;-1.9;93
61571;BME280;47463;49.884;10.010;2023-01-27T01:55:01;102390;;;-2;93
61571;BME280;47463;49.884;10.010;2023-01-27T02:00:03;102390;;;-2;93
61571;BME280;47463;49.884;10.010;2023-01-27T02:05:01;102390;;;-1.9;93
61571;BME280;47463;49.884;10.010;2023-01-27T02:10:01;102390;;;-2;92
61571;BME280;47463;49.884;10.010;2023-01-27T02:15:01;102390;;;-2;92
61571;BME280;47463;49.884;10.010;2023-01-27T02:20:02;102380;;;-2;93
61571;BME280;47463;49.884;10.010;2023-01-27T02:25:02;102380;;;-2;93
61571;BME280;47463;49.884;10.010;2023-01-27T02:30:01;102370;;;-2;93
61571;BME280;47463;49.884;10.010;2023-01-27T02:35:01;102370;;;-2;93
61571;BME280;47463;49.884;10.010;2023-01-27T02:40:01;102370;;;-2;93
61571;BME280;47463;49.884;10.010;2023-01-27T02:45:01;102360;;;-1.9;93
61571;BME280;47463;49.884;10.010;2023-01-27T02:50:01;102370;;;-1.9;93
61571;BME280;47463;49.884;10.010;2023-01-27T02:55:01;102370;;;-1.9;93
61571;BME280;47463;49.884;10.010;2023-01-27T03:00:01;102370;;;-1.9;93
61571;BME280;47463;49.884;10.010;2023-01-27T03:05:01;102380;;;-1.9;93
61571;BME280;47463;49.884;10.010;2023-01-27T03:10:01;102370;;;-1.9;93
61571;BME280;47463;49.884;10.010;2023-01-27T03:15:01;102390;;;-1.9;93
61571;BME280;47463;49.884;10.010;2023-01-27T03:20:01;102390;;;-1.9;93
61571;BME280;47463;49.884;10.010;2023-01-27T03:25:01;102409.99999999999;;;-1.9;93
61571;BME280;47463;49.884;10.010;2023-01-27T03:30:01;102400;;;-1.9;94
61571;BME280;47463;49.884;10.010;2023-01-27T03:35:01;102400;;;-1.9;93
61571;BME280;47463;49.884;10.010;2023-01-27T03:40:01;102400;;;-1.8;93
61571;BME280;47463;49.884;10.010;2023-01-27T03:45:01;102400;;;-1.8;93
61571;BME280;47463;49.884;10.010;2023-01-27T03:50:01;102400;;;-1.8;92
61571;BME280;47463;49.884;10.010;2023-01-27T03:55:01;102409.99999999999;;;-1.8;92
61571;BME280;47463;49.884;10.010;2023-01-27T04:00:01;102409.99999999999;;;-1.8;91
61571;BME280;47463;49.884;10.010;2023-01-27T04:05:01;102420;;;-1.8;91
61571;BME280;47463;49.884;10.010;2023-01-27T04:10:01;102420;;;-1.8;91
61571;BME280;47463;49.884;10.010;2023-01-27T04:15:01;102409.99999999999;;;-1.8;91
61571;BME280;47463;49.884;10.010;2023-01-27T04:20:01;102409.99999999999;;;-1.8;91
61571;BME280;47463;49.884;10.010;2023-01-27T04:25:01;102409.99999999999;;;-1.9;90
61571;BME280;47463;49.884;10.010;2023-01-27T04:30:01;102409.99999999999;;;-1.9;90
61571;BME280;47463;49.884;10.010;2023-01-27T04:35:01;102409.99999999999;;;-1.9;90
61571;BME280;47463;49.884;10.010;2023-01-27T04:40:01;102420;;;-1.9;91
61571;BME280;47463;49.884;10.010;2023-01-27T04:45:01;102420;;;-1.9;91
61571;BME280;47463;49.884;10.010;2023-01-27T04:50:01;102430;;;-1.9;91
61571;BME280;47463;49.884;10.010;2023-01-27T04:55:01;102430;;;-1.9;92
61571;BME280;47463;49.884;10.010;2023-01-27T05:00:01;102430;;;-1.9;91
61571;BME280;47463;49.884;10.010;2023-01-27T05:05:01;102430;;;-1.9;91
61571;BME280;47463;49.884;10.010;2023-01-27T05:10:01;102440.00000000001;;;-1.9;91
61571;BME280;47463;49.884;10.010;2023-01-27T05:15:01;102440.00000000001;;;-1.9;92
61571;BME280;47463;49.884;10.010;2023-01-27T05:20:01;102440.00000000001;;;-1.9;92
61571;BME280;47463;49.884;10.010;2023-01-27T05:25:01;102440.00000000001;;;-1.9;92
61571;BME280;47463;49.884;10.010;2023-01-27T05:30:01;102420;;;-1.9;92
61571;BME280;47463;49.884;10.010;2023-01-27T05:35:01;102440.00000000001;;;-1.9;92
61571;BME280;47463;49.884;10.010;2023-01-27T05:40:01;102440.00000000001;;;-1.9;92
61571;BME280;47463;49.884;10.010;2023-01-27T05:45:01;102430;;;-1.9;93
61571;BME280;47463;49.884;10.010;2023-01-27T05:50:01;102450;;;-1.9;93
61571;BME280;47463;49.884;10.010;2023-01-27T05:55:01;102450;;;-1.9;93
61571;BME280;47463;49.884;10.010;2023-01-27T06:00:01;102459.99999999999;;;-1.9;93
61571;BME280;47463;49.884;10.010;2023-01-27T06:05:01;102459.99999999999;;;-1.9;93
61571;BME280;47463;49.884;10.010;2023-01-27T06:10:01;102470;;;-1.9;93
61571;BME280;47463;49.884;10.010;2023-01-27T06:15:01;102459.99999999999;;;-1.9;93
61571;BME280;47463;49.884;10.010;2023-01-27T06:20:01;102470;;;-1.9;94
61571;BME280;47463;49.884;10.010;2023-01-27T06:25:01;102459.99999999999;;;-1.9;93
61571;BME280;47463;49.884;10.010;2023-01-27T06:30:01;102459.99999999999;;;-1.9;94
61571;BME280;47463;49.884;10.010;2023-01-27T06:35:01;102459.99999999999;;;-1.8;94
61571;BME280;47463;49.884;10.010;2023-01-27T06:40:01;102459.99999999999;;;-1.8;94
61571;BME280;47463;49.884;10.010;2023-01-27T06:45:01;102459.99999999999;;;-1.8;93
61571;BME280;47463;49.884;10.010;2023-01-27T06:50:01;102459.99999999999;;;-1.8;93
61571;BME280;47463;49.884;10.010;2023-01-27T06:55:01;102470;;;-1.8;93
61571;BME280;47463;49.884;10.010;2023-01-27T07:00:01;102470;;;-1.8;93
61571;BME280;47463;49.884;10.010;2023-01-27T07:05:01;102480;;;-1.8;93
61571;BME280;47463;49.884;10.010;2023-01-27T07:10:01;102490.00000000001;;;-1.7;94
61571;BME280;47463;49.884;10.010;2023-01-27T07:15:01;102509.99999999999;;;-1.7;94
61571;BME280;47463;49.884;10.010;2023-01-27T07:20:01;102520;;;-1.7;94
61571;BME280;47463;49.884;10.010;2023-01-27T07:25:01;102520;;;-1.7;94
61571;BME280;47463;49.884;10.010;2023-01-27T07:30:01;102530;;;-1.7;94
61571;BME280;47463;49.884;10.010;2023-01-27T07:35:01;102530;;;-1.7;94
61571;BME280;47463;49.884;10.010;2023-01-27T07:40:01;102540.00000000001;;;-1.7;94
61571;BME280;47463;49.884;10.010;2023-01-27T07:45:01;102540.00000000001;;;-1.7;94
61571;BME280;47463;49.884;10.010;2023-01-27T07:50:01;102540.00000000001;;;-1.7;94
61571;BME280;47463;49.884;10.010;2023-01-27T07:55:01;102550;;;-1.6;93
61571;BME280;47463;49.884;10.010;2023-01-27T08:00:01;102550;;;-1.6;93
61571;BME280;47463;49.884;10.010;2023-01-27T08:05:01;102559.99999999999;;;-1.6;93
61571;BME280;47463;49.884;10.010;2023-01-27T08:10:01;102559.99999999999;;;-1.6;92
61571;BME280;47463;49.884;10.010;2023-01-27T08:15:01;102559.99999999999;;;-1.6;92
61571;BME280;47463;49.884;10.010;2023-01-27T08:20:01;102559.99999999999;;;-1.6;92
61571;BME280;47463;49.884;10.010;2023-01-27T08:25:01;102559.99999999999;;;-1.6;91
61571;BME280;47463;49.884;10.010;2023-01-27T08:30:01;102570;;;-1.5;92
61571;BME280;47463;49.884;10.010;2023-01-27T08:35:01;102570;;;-1.5;91
61571;BME280;47463;49.884;10.010;2023-01-27T08:40:01;102570;;;-1.5;91
61571;BME280;47463;49.884;10.010;2023-01-27T08:45:01;102570;;;-1.4;92
61571;BME280;47463;49.884;10.010;2023-01-27T08:50:01;102570;;;-1.4;92
61571;BME280;47463;49.884;10.010;2023-01-27T08:55:01;102580;;;-1.3;92
61571;BME280;47463;49.884;10.010;2023-01-27T09:00:01;102580;;;-1.2;91
61571;BME280;47463;49.884;10.010;2023-01-27T09:05:01;102600;;;-1.1;91
61571;BME280;47463;49.884;10.010;2023-01-27T09:10:01;102600;;;-1.1;91
61571;BME280;47463;49.884;10.010;2023-01-27T09:15:01;102590.00000000001;;;-1.1;91
61571;BME280;47463;49.884;10.010;2023-01-27T09:20:01;102590.00000000001;;;-1.1;91
61571;BME280;47463;49.884;10.010;2023-01-27T09:25:01;102590.00000000001;;;-1.1;90
61571;BME280;47463;49.884;10.010;2023-01-27T09:30:01;102590.00000000001;;;-1;91
61571;BME280;47463;49.884;10.010;2023-01-27T09:35:01;102600;;;-1.1;91
61571;BME280;47463;49.884;10.010;2023-01-27T09:40:01;102600;;;-1.1;90
61571;BME280;47463;49.884;10.010;2023-01-27T09:45:05;102609.99999999999;;;-1.1;90
61571;BME280;47463;49.884;10.010;2023-01-27T09:50:05;102609.99999999999;;;-1;90
61571;BME280;47463;49.884;10.010;2023-01-27T09:55:02;102609.99999999999;;;-0.9;90
61571;BME280;47463;49.884;10.010;2023-01-27T10:00:04;102609.99999999999;;;-0.8;90
61571;BME280;47463;49.884;10.010;2023-01-27T10:05:05;102609.99999999999;;;-0.6;89
61571;BME280;47463;49.884;10.010;2023-01-27T10:10:03;102609.99999999999;;;-0.5;89
61571;BME280;47463;49.884;10.010;2023-01-27T10:15:04;102609.99999999999;;;-0.5;88
61571;BME280;47463;49.884;10.010;2023-01-27T10:20:04;102609.99999999999;;;-0.4;88
61571;BME280;47463;49.884;10.010;2023-01-27T10:25:06;102600;;;-0.4;88
61571;BME280;47463;49.884;10.010;2023-01-27T10:30:02;102600;;;-0.4;88
61571;BME280;47463;49.884;10.010;2023-01-27T10:35:06;102600;;;-0.4;87
61571;BME280;47463;49.884;10.010;2023-01-27T10:40:03;102590.00000000001;;;-0.4;88
61571;BME280;47463;49.884;10.010;2023-01-27T10:45:04;102590.00000000001;;;-0.3;88
61571;BME280;47463;49.884;10.010;2023-01-27T10:50:02;102590.00000000001;;;-0.1;87
61571;BME280;47463;49.884;10.010;2023-01-27T10:55:02;102590.00000000001;;;-0.1;87
61571;BME280;47463;49.884;10.010;2023-01-27T11:00:02;102600;;;0.1;87
61571;BME280;47463;49.884;10.010;2023-01-27T11:05:01;102590.00000000001;;;0.1;87
61571;BME280;47463;49.884;10.010;2023-01-27T11:10:02;102590.00000000001;;;0.1;87
61571;BME280;47463;49.884;10.010;2023-01-27T11:15:01;102590.00000000001;;;0.1;87
61571;BME280;47463;49.884;10.010;2023-01-27T11:20:03;102590.00000000001;;;0.2;87
61571;BME280;47463;49.884;10.010;2023-01-27T11:25:01;102590.00000000001;;;0.2;87
61571;BME280;47463;49.884;10.010;2023-01-27T11:30:02;102580;;;0.1;87
61571;BME280;47463;49.884;10.010;2023-01-27T11:35:01;102570;;;0.1;87
61571;BME280;47463;49.884;10.010;2023-01-27T11:40:01;102570;;;0.1;87
61571;BME280;47463;49.884;10.010;2023-01-27T11:45:01;102580;;;0.2;87
61571;BME280;47463;49.884;10.010;2023-01-27T11:50:01;102580;;;0.1;87
61571;BME280;47463;49.884;10.010;2023-01-27T11:55:03;102580;;;0.2;87
61571;BME280;47463;49.884;10.010;2023-01-27T12:00:03;102570;;;0.3;87
61571;BME280;47463;49.884;10.010;2023-01-27T12:05:02;102580;;;0.4;86
61571;BME280;47463;49.884;10.010;2023-01-27T12:10:01;102570;;;0.4;87
61571;BME280;47463;49.884;10.010;2023-01-27T12:15:01;102580;;;0.5;86
61571;BME280;47463;49.884;10.010;2023-01-27T12:20:02;102570;;;0.6;86
61571;BME280;47463;49.884;10.010;2023-01-27T12:25:01;102570;;;0.7;85
61571;BME280;47463;49.884;10.010;2023-01-27T12:30:01;102550;;;0.8;85
61571;BME280;47463;49.884;10.010;2023-01-27T12:35:01;102550;;;1.1;84
61571;BME280;47463;49.884;10.010;2023-01-27T12:40:02;102540.00000000001;;;1.1;83
61571;BME280;47463;49.884;10.010;2023-01-27T12:45:14;102550;;;1.2;83
61571;BME280;47463;49.884;10.010;2023-01-27T12:50:16;102540.00000000001;;;1.1;84
61571;BME280;47463;49.884;10.010;2023-01-27T12:55:01;102530;;;1.1;84
61571;BME280;47463;49.884;10.010;2023-01-27T13:00:01;102530;;;1.1;85
61571;BME280;47463;49.884;10.010;2023-01-27T13:05:01;102520;;;1.1;84
61571;BME280;47463;49.884;10.010;2023-01-27T13:10:02;102520;;;1.2;84
61571;BME280;47463;49.884;10.010;2023-01-27T13:15:04;102520;;;1.2;84
61571;BME280;47463;49.884;10.010;2023-01-27T13:20:02;102520;;;1.2;84
61571;BME280;47463;49.884;10.010;2023-01-27T13:25:01;102520;;;1.2;85
61571;BME280;47463;49.884;10.010;2023-01-27T13:30:02;102530;;;1.2;85
61571;BME280;47463;49.884;10.010;2023-01-27T13:35:02;102520;;;1.2;85
61571;BME280;47463;49.884;10.010;2023-01-27T13:40:01;102530;;;1.1;86
61571;BME280;47463;49.884;10.010;2023-01-27T13:45:02;102530;;;1.1;86
61571;BME280;47463;49.884;10.010;2023-01-27T13:50:01;102530;;;1.2;86
61571;BME280;47463;49.884;10.010;2023-01-27T13:55:01;102530;;;1.2;86
61571;BME280;47463;49.884;10.010;2023-01-27T14:00:02;102540.00000000001;;;1.2;87
61571;BME280;47463;49.884;10.010;2023-01-27T14:05:04;102550;;;1.1;87
61571;BME280;47463;49.884;10.010;2023-01-27T14:10:05;102550;;;1.1;87
61571;BME280;47463;49.884;10.010;2023-01-27T14:15:02;102550;;;1.1;87
61571;BME280;47463;49.884;10.010;2023-01-27T14:20:07;102550;;;1.1;87
61571;BME280;47463;49.884;10.010;2023-01-27T14:25:01;102550;;;1;87
61571;BME280;47463;49.884;10.010;2023-01-27T14:30:03;102559.99999999999;;;1;87
61571;BME280;47463;49.884;10.010;2023-01-27T14:35:05;102559.99999999999;;;1.1;87
61571;BME280;47463;49.884;10.010;2023-01-27T14:40:04;102559.99999999999;;;1.1;87
61571;BME280;47463;49.884;10.010;2023-01-27T14:45:02;102570;;;1;87
61571;BME280;47463;49.884;10.010;2023-01-27T14:50:04;102570;;;1;87
61571;BME280;47463;49.884;10.010;2023-01-27T14:55:06;102580;;;1;88
61571;BME280;47463;49.884;10.010;2023-01-27T15:00:06;102570;;;0.9;88
61571;BME280;47463;49.884;10.010;2023-01-27T15:05:02;102570;;;0.9;89
61571;BME280;47463;49.884;10.010;2023-01-27T15:10:03;102570;;;0.9;89
61571;BME280;47463;49.884;10.010;2023-01-27T15:15:20;102570;;;0.9;89
61571;BME280;47463;49.884;10.010;2023-01-27T15:20:07;102580;;;0.9;89
61571;BME280;47463;49.884;10.010;2023-01-27T15:25:07;102590.00000000001;;;0.9;90
61571;BME280;47463;49.884;10.010;2023-01-27T15:30:05;102590.00000000001;;;0.9;89
61571;BME280;47463;49.884;10.010;2023-01-27T15:35:33;102590.00000000001;;;0.9;89
61571;BME280;47463;49.884;10.010;2023-01-27T15:40:03;102590.00000000001;;;0.8;90
61571;BME280;47463;49.884;10.010;2023-01-27T15:45:01;102590.00000000001;;;0.8;90
61571;BME280;47463;49.884;10.010;2023-01-27T15:50:11;102600;;;0.8;90
61571;BME280;47463;49.884;10.010;2023-01-27T15:55:01;102609.99999999999;;;0.8;91
61571;BME280;47463;49.884;10.010;2023-01-27T16:00:01;102620;;;0.7;91
61571;BME280;47463;49.884;10.010;2023-01-27T16:05:05;102620;;;0.7;91
61571;BME280;47463;49.884;10.010;2023-01-27T16:10:01;102630;;;0.7;92
61571;BME280;47463;49.884;10.010;2023-01-27T16:15:14;102620;;;0.7;92
61571;BME280;47463;49.884;10.010;2023-01-27T16:20:02;102630;;;0.7;91
61571;BME280;47463;49.884;10.010;2023-01-27T16:25:03;102620;;;0.7;91
61571;BME280;47463;49.884;10.010;2023-01-27T16:30:06;102630;;;0.7;91
61571;BME280;47463;49.884;10.010;2023-01-27T16:35:02;102630;;;0.7;91
61571;BME280;47463;49.884;10.010;2023-01-27T16:40:02;102640.00000000001;;;0.7;91
61571;BME280;47463;49.884;10.010;2023-01-27T16:45:03;102640.00000000001;;;0.7;91
61571;BME280;47463;49.884;10.010;2023-01-27T16:50:01;102640.00000000001;;;0.7;92
61571;BME280;47463;49.884;10.010;2023-01-27T16:55:01;102650;;;0.6;92
61571;BME280;47463;49.884;10.010;2023-01-27T17:00:03;102650;;;0.6;93
61571;BME280;47463;49.884;10.010;2023-01-27T17:05:02;102650;;;0.6;93
61571;BME280;47463;49.884;10.010;2023-01-27T17:10:04;102659.99999999999;;;0.5;93
61571;BME280;47463;49.884;10.010;2023-01-27T17:15:08;102659.99999999999;;;0.6;93
61571;BME280;47463;49.884;10.010;2023-01-27T17:20:01;102670;;;0.6;93
61571;BME280;47463;49.884;10.010;2023-01-27T17:25:01;102670;;;0.6;93
61571;BME280;47463;49.884;10.010;2023-01-27T17:30:02;102680;;;0.6;93
61571;BME280;47463;49.884;10.010;2023-01-27T17:35:02;102670;;;0.6;93
61571;BME280;47463;49.884;10.010;2023-01-27T17:40:01;102680;;;0.6;93
61571;BME280;47463;49.884;10.010;2023-01-27T17:45:32;102680;;;0.6;93
61571;BME280;47463;49.884;10.010;2023-01-27T17:50:01;102670;;;0.6;93
61571;BME280;47463;49.884;10.010;2023-01-27T17:55:01;102670;;;0.6;92
61571;BME280;47463;49.884;10.010;2023-01-27T18:00:02;102680;;;0.6;92
61571;BME280;47463;49.884;10.010;2023-01-27T18:05:02;102680;;;0.6;92
61571;BME280;47463;49.884;10.010;2023-01-27T18:10:14;102680;;;0.6;92
61571;BME280;47463;49.884;10.010;2023-01-27T18:15:31;102680;;;0.5;93
61571;BME280;47463;49.884;10.010;2023-01-27T18:20:01;102690.00000000001;;;0.5;93
61571;BME280;47463;49.884;10.010;2023-01-27T18:25:01;102700;;;0.5;93
61571;BME280;47463;49.884;10.010;2023-01-27T18:30:01;102700;;;0.5;93
61571;BME280;47463;49.884;10.010;2023-01-27T18:35:01;102700;;;0.5;93
61571;BME280;47463;49.884;10.010;2023-01-27T18:40:02;102709.99999999999;;;0.5;93
61571;BME280;47463;49.884;10.010;2023-01-27T18:45:01;102709.99999999999;;;0.5;93
61571;BME280;47463;49.884;10.010;2023-01-27T18:50:10;102720;;;0.5;93
61571;BME280;47463;49.884;10.010;2023-01-27T18:55:05;102720;;;0.5;93
61571;BME280;47463;49.884;10.010;2023-01-27T19:00:01;102720;;;0.4;93
61571;BME280;47463;49.884;10.010;2023-01-27T19:05:01;102720;;;0.4;93
61571;BME280;47463;49.884;10.010;2023-01-27T19:10:01;102730;;;0.4;93
61571;BME280;47463;49.884;10.010;2023-01-27T19:15:01;102730;;;0.5;92
61571;BME280;47463;49.884;10.010;2023-01-27T19:20:01;102740.00000000001;;;0.4;93
61571;BME280;47463;49.884;10.010;2023-01-27T19:25:01;102730;;;0.4;92
61571;BME280;47463;49.884;10.010;2023-01-27T19:30:05;102730;;;0.4;92
61571;BME280;47463;49.884;10.010;2023-01-27T19:35:01;102730;;;0.4;93
61571;BME280;47463;49.884;10.010;2023-01-27T19:40:01;102740.00000000001;;;0.4;92
61571;BME280;47463;49.884;10.010;2023-01-27T19:45:01;102730;;;0.4;93
61571;BME280;47463;49.884;10.010;2023-01-27T19:50:01;102740.00000000001;;;0.4;93
61571;BME280;47463;49.884;10.010;2023-01-27T19:55:01;102750;;;0.3;93
61571;BME280;47463;49.884;10.010;2023-01-27T20:00:01;102759.99999999999;;;0.3;94
61571;BME280;47463;49.884;10.010;2023-01-27T20:05:01;102759.99999999999;;;0.3;94
61571;BME280;47463;49.884;10.010;2023-01-27T20:10:01;102759.99999999999;;;0.3;94
61571;BME280;47463;49.884;10.010;2023-01-27T20:15:01;102770;;;0.3;94
61571;BME280;47463;49.884;10.010;2023-01-27T20:20:01;102770;;;0.3;93
61571;BME280;47463;49.884;10.010;2023-01-27T20:25:01;102759.99999999999;;;0.3;93
61571;BME280;47463;49.884;10.010;2023-01-27T20:30:01;102770;;;0.4;93
61571;BME280;47463;49.884;10.010;2023-01-27T20:35:01;102770;;;0.4;93
61571;BME280;47463;49.884;10.010;2023-01-27T20:40:01;102770;;;0.4;93
61571;BME280;47463;49.884;10.010;2023-01-27T20:45:01;102759.99999999999;;;0.4;93
61571;BME280;47463;49.884;10.010;2023-01-27T20:50:01;102770;;;0.4;92
61571;BME280;47463;49.884;10.010;2023-01-27T20:55:01;102759.99999999999;;;0.4;92
61571;BME280;47463;49.884;10.010;2023-01-27T21:00:01;102780;;;0.4;93
61571;BME280;47463;49.884;10.010;2023-01-27T21:05:01;102780;;;0.5;93
61571;BME280;47463;49.884;10.010;2023-01-27T21:10:01;102780;;;0.6;93
61571;BME280;47463;49.884;10.010;2023-01-27T21:15:01;102770;;;0.7;93
61571;BME280;47463;49.884;10.010;2023-01-27T21:20:01;102759.99999999999;;;0.8;93
61571;BME280;47463;49.884;10.010;2023-01-27T21:25:01;102759.99999999999;;;0.8;92
61571;BME280;47463;49.884;10.010;2023-01-27T21:30:01;102770;;;0.9;92
61571;BME280;47463;49.884;10.010;2023-01-27T21:35:01;102770;;;0.9;92
61571;BME280;47463;49.884;10.010;2023-01-27T21:40:01;102770;;;0.9;92
61571;BME280;47463;49.884;10.010;2023-01-27T21:45:01;102759.99999999999;;;1;91
61571;BME280;47463;49.884;10.010;2023-01-27T21:50:01;102770;;;1;91
61571;BME280;47463;49.884;10.010;2023-01-27T21:55:01;102770;;;1;91
61571;BME280;47463;49.884;10.010;2023-01-27T22:00:01;102780;;;1;91
61571;BME280;47463;49.884;10.010;2023-01-27T22:05:01;102770;;;1;91
61571;BME280;47463;49.884;10.010;2023-01-27T22:10:01;102790.00000000001;;;1;92
61571;BME280;47463;49.884;10.010;2023-01-27T22:15:01;102790.00000000001;;;1;92
61571;BME280;47463;49.884;10.010;2023-01-27T22:20:01;102780;;;1;92
61571;BME280;47463;49.884;10.010;2023-01-27T22:25:01;102780;;;1;92
61571;BME280;47463;49.884;10.010;2023-01-27T22:30:01;102780;;;1;92
61571;BME280;47463;49.884;10.010;2023-01-27T22:35:01;102790.00000000001;;;1;93
61571;BME280;47463;49.884;10.010;2023-01-27T22:40:01;102780;;;0.9;93
61571;BME280;47463;49.884;10.010;2023-01-27T22:45:01;102790.00000000001;;;0.9;93
61571;BME280;47463;49.884;10.010;2023-01-27T22:50:01;102780;;;0.9;93
61571;BME280;47463;49.884;10.010;2023-01-27T22:55:01;102780;;;0.9;93
61571;BME280;47463;49.884;10.010;2023-01-27T23:00:01;102770;;;0.9;94
61571;BME280;47463;49.884;10.010;2023-01-27T23:05:01;102770;;;0.8;95
61571;BME280;47463;49.884;10.010;2023-01-27T23:10:01;102770;;;0.6;97
61571;BME280;47463;49.884;10.010;2023-01-27T23:15:01;102770;;;0.5;97
61571;BME280;47463;49.884;10.010;2023-01-27T23:20:01;102770;;;0.5;97
61571;BME280;47463;49.884;10.010;2023-01-27T23:25:01;102750;;;0.6;97
61571;BME280;47463;49.884;10.010;2023-01-27T23:30:01;102770;;;0.6;96
61571;BME280;47463;49.884;10.010;2023-01-27T23:35:01;102770;;;0.6;96
61571;BME280;47463;49.884;10.010;2023-01-27T23:40:01;102780;;;0.6;96
61571;BME280;47463;49.884;10.010;2023-01-27T23:45:01;102780;;;0.6;96
61571;BME280;47463;49.884;10.010;2023-01-27T23:50:01;102780;;;0.7;96
61571;BME280;47463;49.884;10.010;2023-01-27T23:55:01;102780;;;0.6;96
